<?xml version="1.0" encoding="UTF-8" standalone="no" ?>
<gpx xmlns="http://www.topografix.com/GPX/1/1" xmlns:xsi="http://www.w3.org/2001/XMLSchema-instance" xsi:schemaLocation="http://www.topografix.com/GPX/1/1 http://www.topografix.com/GPX/1/1/gpx.xsd" version="1.1" creator="VisuGPX - https://www.visugpx.com">
  <metadata>
    <name>Pont-du-Casse Randonnée Via jardin botanique</name>
    <desc><![CDATA[Randonnée dans les coteaux du pays de Serre]]></desc>
  </metadata>
  <wpt lat="44.23208" lon="0.68228">
    <ele>68.2</ele>
    <name><![CDATA[Point de passage 1]]></name>
  </wpt>
  <wpt lat="44.23557" lon="0.70005">
    <ele>96.4</ele>
    <name><![CDATA[1 - Naudy]]></name>
    <type><![CDATA[__]]></type>
  </wpt>
  <wpt lat="44.23794" lon="0.71043">
    <ele>94.2</ele>
    <name><![CDATA[2 - Lamasse]]></name>
    <type><![CDATA[__]]></type>
  </wpt>
  <wpt lat="44.23369" lon="0.71632">
    <ele>151.7</ele>
    <name><![CDATA[3 - Taburlet]]></name>
    <type><![CDATA[__]]></type>
  </wpt>
  <wpt lat="44.23974" lon="0.72044">
    <ele>183.3</ele>
    <name><![CDATA[4 - Cazoulènes]]></name>
    <type><![CDATA[__]]></type>
  </wpt>
  <wpt lat="44.23303" lon="0.72931">
    <ele>156.8</ele>
    <name><![CDATA[5 - Biboul]]></name>
    <type><![CDATA[__]]></type>
  </wpt>
  <wpt lat="44.22625" lon="0.73021">
    <ele>176.7</ele>
    <name><![CDATA[6 - Tabart]]></name>
    <type><![CDATA[__]]></type>
  </wpt>
  <wpt lat="44.22201" lon="0.72267">
    <ele>182.5</ele>
    <name><![CDATA[7 - Paret]]></name>
    <type><![CDATA[__]]></type>
  </wpt>
  <wpt lat="44.22056" lon="0.70743">
    <ele>99.5</ele>
    <name><![CDATA[8 - Castelnoubel]]></name>
    <type><![CDATA[__]]></type>
  </wpt>
  <wpt lat="44.22202" lon="0.69738">
    <ele>160.1</ele>
    <name><![CDATA[9 - Ferme La Bosse]]></name>
    <type><![CDATA[__]]></type>
  </wpt>
  <wpt lat="44.21225" lon="0.69977">
    <ele>159.2</ele>
    <name><![CDATA[10 - Moncuquet]]></name>
    <type><![CDATA[__]]></type>
  </wpt>
  <wpt lat="44.21224" lon="0.68984">
    <ele>158.7</ele>
    <name><![CDATA[11 - Saint Ferreol]]></name>
    <type><![CDATA[__]]></type>
  </wpt>
  <wpt lat="44.22088" lon="0.68413">
    <ele>151.6</ele>
    <name><![CDATA[12 - Fontaine du bois des jésuites]]></name>
    <type><![CDATA[__]]></type>
  </wpt>
  <wpt lat="44.23208" lon="0.68228">
    <ele>68.2</ele>
    <name><![CDATA[DA]]></name>
    <type><![CDATA[__]]></type>
  </wpt>
  <trk>
    <name><![CDATA[Pont-du-Casse Randonnée Via jardin botanique]]></name>
    <extensions>
      <line xmlns="http://www.topografix.com/GPX/gpx_style/0/2">
        <color>0000FF</color>
        <width>4</width>
      </line>
    </extensions>
    <trkseg>
      <trkpt lat="44.23208" lon="0.68228">
        <ele>68</ele>
        <time>2026-01-06T17:18:12.000Z</time>
      </trkpt>
      <trkpt lat="44.23309" lon="0.68534">
        <ele>67</ele>
        <time>2026-01-06T17:22:48.000Z</time>
      </trkpt>
      <trkpt lat="44.23385" lon="0.69062">
        <ele>71</ele>
        <time>2026-01-06T17:30:51.000Z</time>
      </trkpt>
      <trkpt lat="44.23387" lon="0.69323">
        <ele>73</ele>
        <time>2026-01-06T17:34:46.000Z</time>
      </trkpt>
      <trkpt lat="44.23552" lon="0.69806">
        <ele>83</ele>
        <time>2026-01-06T17:43:48.000Z</time>
      </trkpt>
      <trkpt lat="44.23557" lon="0.70005">
        <ele>96</ele>
        <time>2026-01-06T17:48:45.000Z</time>
      </trkpt>
      <trkpt lat="44.23811" lon="0.70287">
        <ele>79</ele>
        <time>2026-01-06T17:54:57.000Z</time>
      </trkpt>
      <trkpt lat="44.23872" lon="0.70285">
        <ele>78</ele>
        <time>2026-01-06T17:56:07.000Z</time>
      </trkpt>
      <trkpt lat="44.24034" lon="0.70462">
        <ele>77</ele>
        <time>2026-01-06T18:00:03.000Z</time>
      </trkpt>
      <trkpt lat="44.24089" lon="0.70652">
        <ele>80</ele>
        <time>2026-01-06T18:03:22.000Z</time>
      </trkpt>
      <trkpt lat="44.23991" lon="0.70819">
        <ele>85</ele>
        <time>2026-01-06T18:07:11.000Z</time>
      </trkpt>
      <trkpt lat="44.23794" lon="0.71043">
        <ele>93</ele>
        <time>2026-01-06T18:13:24.000Z</time>
      </trkpt>
      <trkpt lat="44.23794" lon="0.71041">
        <ele>93</ele>
        <time>2026-01-06T18:13:25.000Z</time>
      </trkpt>
      <trkpt lat="44.23696" lon="0.71091">
        <ele>101</ele>
        <time>2026-01-06T18:16:46.000Z</time>
      </trkpt>
      <trkpt lat="44.23623" lon="0.71143">
        <ele>103</ele>
        <time>2026-01-06T18:18:41.000Z</time>
      </trkpt>
      <trkpt lat="44.23588" lon="0.71191">
        <ele>107</ele>
        <time>2026-01-06T18:20:18.000Z</time>
      </trkpt>
      <trkpt lat="44.23588" lon="0.71191">
        <ele>107</ele>
        <time>2026-01-06T18:20:18.000Z</time>
      </trkpt>
      <trkpt lat="44.23549" lon="0.7123">
        <ele>108</ele>
        <time>2026-01-06T18:21:24.000Z</time>
      </trkpt>
      <trkpt lat="44.23519" lon="0.71264">
        <ele>111</ele>
        <time>2026-01-06T18:22:38.000Z</time>
      </trkpt>
      <trkpt lat="44.23489" lon="0.71284">
        <ele>115</ele>
        <time>2026-01-06T18:23:57.000Z</time>
      </trkpt>
      <trkpt lat="44.23463" lon="0.71295">
        <ele>115</ele>
        <time>2026-01-06T18:24:28.000Z</time>
      </trkpt>
      <trkpt lat="44.23413" lon="0.71346">
        <ele>119</ele>
        <time>2026-01-06T18:26:20.000Z</time>
      </trkpt>
      <trkpt lat="44.23415" lon="0.7135">
        <ele>120</ele>
        <time>2026-01-06T18:26:35.000Z</time>
      </trkpt>
      <trkpt lat="44.23413" lon="0.71346">
        <ele>119</ele>
        <time>2026-01-06T18:26:39.000Z</time>
      </trkpt>
      <trkpt lat="44.23408" lon="0.7135">
        <ele>120</ele>
        <time>2026-01-06T18:26:55.000Z</time>
      </trkpt>
      <trkpt lat="44.23393" lon="0.7139">
        <ele>122</ele>
        <time>2026-01-06T18:27:53.000Z</time>
      </trkpt>
      <trkpt lat="44.23389" lon="0.71411">
        <ele>123</ele>
        <time>2026-01-06T18:28:21.000Z</time>
      </trkpt>
      <trkpt lat="44.23389" lon="0.71411">
        <ele>123</ele>
        <time>2026-01-06T18:28:21.000Z</time>
      </trkpt>
      <trkpt lat="44.23387" lon="0.71418">
        <ele>123</ele>
        <time>2026-01-06T18:28:27.000Z</time>
      </trkpt>
      <trkpt lat="44.23386" lon="0.71517">
        <ele>132</ele>
        <time>2026-01-06T18:31:21.000Z</time>
      </trkpt>
      <trkpt lat="44.23384" lon="0.7153">
        <ele>134</ele>
        <time>2026-01-06T18:31:52.000Z</time>
      </trkpt>
      <trkpt lat="44.23359" lon="0.71539">
        <ele>139</ele>
        <time>2026-01-06T18:33:13.000Z</time>
      </trkpt>
      <trkpt lat="44.23367" lon="0.71587">
        <ele>145</ele>
        <time>2026-01-06T18:34:55.000Z</time>
      </trkpt>
      <trkpt lat="44.23369" lon="0.71632">
        <ele>149</ele>
        <time>2026-01-06T18:36:13.000Z</time>
      </trkpt>
      <trkpt lat="44.23372" lon="0.71643">
        <ele>151</ele>
        <time>2026-01-06T18:36:43.000Z</time>
      </trkpt>
      <trkpt lat="44.23375" lon="0.7164">
        <ele>150</ele>
        <time>2026-01-06T18:36:47.000Z</time>
      </trkpt>
      <trkpt lat="44.23405" lon="0.71678">
        <ele>161</ele>
        <time>2026-01-06T18:39:27.000Z</time>
      </trkpt>
      <trkpt lat="44.23659" lon="0.71704">
        <ele>163</ele>
        <time>2026-01-06T18:44:39.000Z</time>
      </trkpt>
      <trkpt lat="44.23974" lon="0.72044">
        <ele>183</ele>
        <time>2026-01-06T18:55:41.000Z</time>
      </trkpt>
      <trkpt lat="44.23972" lon="0.72042">
        <ele>184</ele>
        <time>2026-01-06T18:55:54.000Z</time>
      </trkpt>
      <trkpt lat="44.23968" lon="0.7205">
        <ele>183</ele>
        <time>2026-01-06T18:56:02.000Z</time>
      </trkpt>
      <trkpt lat="44.23914" lon="0.72131">
        <ele>184</ele>
        <time>2026-01-06T18:57:43.000Z</time>
      </trkpt>
      <trkpt lat="44.23897" lon="0.72166">
        <ele>183</ele>
        <time>2026-01-06T18:58:18.000Z</time>
      </trkpt>
      <trkpt lat="44.23807" lon="0.72289">
        <ele>184</ele>
        <time>2026-01-06T19:00:52.000Z</time>
      </trkpt>
      <trkpt lat="44.2379" lon="0.72337">
        <ele>185</ele>
        <time>2026-01-06T19:01:45.000Z</time>
      </trkpt>
      <trkpt lat="44.2379" lon="0.72337">
        <ele>185</ele>
        <time>2026-01-06T19:01:45.000Z</time>
      </trkpt>
      <trkpt lat="44.23784" lon="0.72356">
        <ele>185</ele>
        <time>2026-01-06T19:02:03.000Z</time>
      </trkpt>
      <trkpt lat="44.23765" lon="0.72447">
        <ele>186</ele>
        <time>2026-01-06T19:03:31.000Z</time>
      </trkpt>
      <trkpt lat="44.23749" lon="0.72545">
        <ele>184</ele>
        <time>2026-01-06T19:04:54.000Z</time>
      </trkpt>
      <trkpt lat="44.23733" lon="0.72589">
        <ele>185</ele>
        <time>2026-01-06T19:05:44.000Z</time>
      </trkpt>
      <trkpt lat="44.23623" lon="0.72711">
        <ele>175</ele>
        <time>2026-01-06T19:08:25.000Z</time>
      </trkpt>
      <trkpt lat="44.23615" lon="0.72726">
        <ele>175</ele>
        <time>2026-01-06T19:08:41.000Z</time>
      </trkpt>
      <trkpt lat="44.23575" lon="0.72841">
        <ele>170</ele>
        <time>2026-01-06T19:10:25.000Z</time>
      </trkpt>
      <trkpt lat="44.23577" lon="0.72842">
        <ele>170</ele>
        <time>2026-01-06T19:10:28.000Z</time>
      </trkpt>
      <trkpt lat="44.23386" lon="0.72927">
        <ele>164</ele>
        <time>2026-01-06T19:14:18.000Z</time>
      </trkpt>
      <trkpt lat="44.23303" lon="0.72931">
        <ele>159</ele>
        <time>2026-01-06T19:15:53.000Z</time>
      </trkpt>
      <trkpt lat="44.23307" lon="0.73086">
        <ele>158</ele>
        <time>2026-01-06T19:18:00.000Z</time>
      </trkpt>
      <trkpt lat="44.23225" lon="0.73129">
        <ele>166</ele>
        <time>2026-01-06T19:21:03.000Z</time>
      </trkpt>
      <trkpt lat="44.23045" lon="0.73063">
        <ele>167</ele>
        <time>2026-01-06T19:24:46.000Z</time>
      </trkpt>
      <trkpt lat="44.22967" lon="0.73295">
        <ele>183</ele>
        <time>2026-01-06T19:31:01.000Z</time>
      </trkpt>
      <trkpt lat="44.22927" lon="0.73144">
        <ele>182</ele>
        <time>2026-01-06T19:33:13.000Z</time>
      </trkpt>
      <trkpt lat="44.22823" lon="0.73201">
        <ele>179</ele>
        <time>2026-01-06T19:35:21.000Z</time>
      </trkpt>
      <trkpt lat="44.22625" lon="0.73021">
        <ele>177</ele>
        <time>2026-01-06T19:39:52.000Z</time>
      </trkpt>
      <trkpt lat="44.22337" lon="0.73054">
        <ele>168</ele>
        <time>2026-01-06T19:45:23.000Z</time>
      </trkpt>
      <trkpt lat="44.2217" lon="0.73021">
        <ele>178</ele>
        <time>2026-01-06T19:50:19.000Z</time>
      </trkpt>
      <trkpt lat="44.22144" lon="0.72934">
        <ele>179</ele>
        <time>2026-01-06T19:51:47.000Z</time>
      </trkpt>
      <trkpt lat="44.22159" lon="0.72969">
        <ele>179</ele>
        <time>2026-01-06T19:52:20.000Z</time>
      </trkpt>
      <trkpt lat="44.22092" lon="0.7266">
        <ele>182</ele>
        <time>2026-01-06T19:57:16.000Z</time>
      </trkpt>
      <trkpt lat="44.22201" lon="0.72267">
        <ele>183</ele>
        <time>2026-01-06T20:03:12.000Z</time>
      </trkpt>
      <trkpt lat="44.22301" lon="0.72169">
        <ele>179</ele>
        <time>2026-01-06T20:05:32.000Z</time>
      </trkpt>
      <trkpt lat="44.22353" lon="0.72055">
        <ele>178</ele>
        <time>2026-01-06T20:07:23.000Z</time>
      </trkpt>
      <trkpt lat="44.22258" lon="0.71809">
        <ele>165</ele>
        <time>2026-01-06T20:11:12.000Z</time>
      </trkpt>
      <trkpt lat="44.22121" lon="0.71576">
        <ele>160</ele>
        <time>2026-01-06T20:15:19.000Z</time>
      </trkpt>
      <trkpt lat="44.21945" lon="0.71596">
        <ele>178</ele>
        <time>2026-01-06T20:21:46.000Z</time>
      </trkpt>
      <trkpt lat="44.21944" lon="0.71399">
        <ele>165</ele>
        <time>2026-01-06T20:24:28.000Z</time>
      </trkpt>
      <trkpt lat="44.22056" lon="0.70743">
        <ele>99</ele>
        <time>2026-01-06T20:33:41.000Z</time>
      </trkpt>
      <trkpt lat="44.22056" lon="0.70743">
        <ele>99</ele>
        <time>2026-01-06T20:33:41.000Z</time>
      </trkpt>
      <trkpt lat="44.22061" lon="0.70746">
        <ele>99</ele>
        <time>2026-01-06T20:33:47.000Z</time>
      </trkpt>
      <trkpt lat="44.22091" lon="0.70772">
        <ele>100</ele>
        <time>2026-01-06T20:34:38.000Z</time>
      </trkpt>
      <trkpt lat="44.22155" lon="0.70814">
        <ele>102</ele>
        <time>2026-01-06T20:36:20.000Z</time>
      </trkpt>
      <trkpt lat="44.22187" lon="0.70816">
        <ele>101</ele>
        <time>2026-01-06T20:36:57.000Z</time>
      </trkpt>
      <trkpt lat="44.2232" lon="0.70809">
        <ele>101</ele>
        <time>2026-01-06T20:39:30.000Z</time>
      </trkpt>
      <trkpt lat="44.2233" lon="0.70773">
        <ele>101</ele>
        <time>2026-01-06T20:40:02.000Z</time>
      </trkpt>
      <trkpt lat="44.22353" lon="0.70789">
        <ele>100</ele>
        <time>2026-01-06T20:40:31.000Z</time>
      </trkpt>
      <trkpt lat="44.22348" lon="0.70801">
        <ele>100</ele>
        <time>2026-01-06T20:40:43.000Z</time>
      </trkpt>
      <trkpt lat="44.22299" lon="0.70733">
        <ele>102</ele>
        <time>2026-01-06T20:42:23.000Z</time>
      </trkpt>
      <trkpt lat="44.22302" lon="0.70608">
        <ele>113</ele>
        <time>2026-01-06T20:45:59.000Z</time>
      </trkpt>
      <trkpt lat="44.22515" lon="0.70407">
        <ele>155</ele>
        <time>2026-01-06T20:58:05.000Z</time>
      </trkpt>
      <trkpt lat="44.2256" lon="0.70245">
        <ele>157</ele>
        <time>2026-01-06T21:00:48.000Z</time>
      </trkpt>
      <trkpt lat="44.22445" lon="0.69961">
        <ele>159</ele>
        <time>2026-01-06T21:05:36.000Z</time>
      </trkpt>
      <trkpt lat="44.22202" lon="0.69738">
        <ele>160</ele>
        <time>2026-01-06T21:11:19.000Z</time>
      </trkpt>
      <trkpt lat="44.22141" lon="0.69955">
        <ele>162</ele>
        <time>2026-01-06T21:14:51.000Z</time>
      </trkpt>
      <trkpt lat="44.21945" lon="0.69846">
        <ele>154</ele>
        <time>2026-01-06T21:18:53.000Z</time>
      </trkpt>
      <trkpt lat="44.21666" lon="0.70058">
        <ele>159</ele>
        <time>2026-01-06T21:25:48.000Z</time>
      </trkpt>
      <trkpt lat="44.21398" lon="0.70148">
        <ele>165</ele>
        <time>2026-01-06T21:32:05.000Z</time>
      </trkpt>
      <trkpt lat="44.21337" lon="0.70129">
        <ele>164</ele>
        <time>2026-01-06T21:33:17.000Z</time>
      </trkpt>
      <trkpt lat="44.21225" lon="0.69977">
        <ele>159</ele>
        <time>2026-01-06T21:36:16.000Z</time>
      </trkpt>
      <trkpt lat="44.21403" lon="0.69768">
        <ele>166</ele>
        <time>2026-01-06T21:41:54.000Z</time>
      </trkpt>
      <trkpt lat="44.21466" lon="0.69568">
        <ele>153</ele>
        <time>2026-01-06T21:44:53.000Z</time>
      </trkpt>
      <trkpt lat="44.21585" lon="0.69485">
        <ele>149</ele>
        <time>2026-01-06T21:47:25.000Z</time>
      </trkpt>
      <trkpt lat="44.21589" lon="0.69411">
        <ele>152</ele>
        <time>2026-01-06T21:48:57.000Z</time>
      </trkpt>
      <trkpt lat="44.21476" lon="0.69212">
        <ele>155</ele>
        <time>2026-01-06T21:52:56.000Z</time>
      </trkpt>
      <trkpt lat="44.21405" lon="0.69172">
        <ele>151</ele>
        <time>2026-01-06T21:54:24.000Z</time>
      </trkpt>
      <trkpt lat="44.21345" lon="0.69189">
        <ele>151</ele>
        <time>2026-01-06T21:55:34.000Z</time>
      </trkpt>
      <trkpt lat="44.21274" lon="0.69154">
        <ele>152</ele>
        <time>2026-01-06T21:57:11.000Z</time>
      </trkpt>
      <trkpt lat="44.21224" lon="0.68984">
        <ele>158</ele>
        <time>2026-01-06T22:00:44.000Z</time>
      </trkpt>
      <trkpt lat="44.21739" lon="0.68854">
        <ele>174</ele>
        <time>2026-01-06T22:13:28.000Z</time>
      </trkpt>
      <trkpt lat="44.21782" lon="0.68999">
        <ele>167</ele>
        <time>2026-01-06T22:15:37.000Z</time>
      </trkpt>
      <trkpt lat="44.21825" lon="0.69">
        <ele>164</ele>
        <time>2026-01-06T22:16:26.000Z</time>
      </trkpt>
      <trkpt lat="44.21824" lon="0.69034">
        <ele>165</ele>
        <time>2026-01-06T22:17:04.000Z</time>
      </trkpt>
      <trkpt lat="44.21824" lon="0.69018">
        <ele>163</ele>
        <time>2026-01-06T22:17:17.000Z</time>
      </trkpt>
      <trkpt lat="44.21824" lon="0.69018">
        <ele>163</ele>
        <time>2026-01-06T22:17:17.000Z</time>
      </trkpt>
      <trkpt lat="44.21836" lon="0.69014">
        <ele>165</ele>
        <time>2026-01-06T22:17:52.000Z</time>
      </trkpt>
      <trkpt lat="44.21878" lon="0.69026">
        <ele>167</ele>
        <time>2026-01-06T22:19:02.000Z</time>
      </trkpt>
      <trkpt lat="44.21892" lon="0.69022">
        <ele>167</ele>
        <time>2026-01-06T22:19:18.000Z</time>
      </trkpt>
      <trkpt lat="44.21935" lon="0.68969">
        <ele>164</ele>
        <time>2026-01-06T22:20:24.000Z</time>
      </trkpt>
      <trkpt lat="44.21942" lon="0.68997">
        <ele>164</ele>
        <time>2026-01-06T22:20:49.000Z</time>
      </trkpt>
      <trkpt lat="44.21955" lon="0.69009">
        <ele>162</ele>
        <time>2026-01-06T22:21:06.000Z</time>
      </trkpt>
      <trkpt lat="44.21959" lon="0.69026">
        <ele>158</ele>
        <time>2026-01-06T22:21:21.000Z</time>
      </trkpt>
      <trkpt lat="44.21977" lon="0.69059">
        <ele>158</ele>
        <time>2026-01-06T22:21:55.000Z</time>
      </trkpt>
      <trkpt lat="44.21986" lon="0.6909">
        <ele>159</ele>
        <time>2026-01-06T22:22:33.000Z</time>
      </trkpt>
      <trkpt lat="44.22024" lon="0.69104">
        <ele>163</ele>
        <time>2026-01-06T22:23:58.000Z</time>
      </trkpt>
      <trkpt lat="44.22048" lon="0.69073">
        <ele>163</ele>
        <time>2026-01-06T22:24:36.000Z</time>
      </trkpt>
      <trkpt lat="44.22079" lon="0.69049">
        <ele>164</ele>
        <time>2026-01-06T22:25:27.000Z</time>
      </trkpt>
      <trkpt lat="44.22101" lon="0.69026">
        <ele>165</ele>
        <time>2026-01-06T22:26:08.000Z</time>
      </trkpt>
      <trkpt lat="44.2211" lon="0.69002">
        <ele>164</ele>
        <time>2026-01-06T22:26:30.000Z</time>
      </trkpt>
      <trkpt lat="44.22121" lon="0.69004">
        <ele>165</ele>
        <time>2026-01-06T22:26:53.000Z</time>
      </trkpt>
      <trkpt lat="44.22134" lon="0.68966">
        <ele>162</ele>
        <time>2026-01-06T22:27:28.000Z</time>
      </trkpt>
      <trkpt lat="44.22137" lon="0.68955">
        <ele>162</ele>
        <time>2026-01-06T22:27:38.000Z</time>
      </trkpt>
      <trkpt lat="44.22124" lon="0.68909">
        <ele>159</ele>
        <time>2026-01-06T22:28:18.000Z</time>
      </trkpt>
      <trkpt lat="44.22124" lon="0.68879">
        <ele>157</ele>
        <time>2026-01-06T22:28:42.000Z</time>
      </trkpt>
      <trkpt lat="44.22121" lon="0.68854">
        <ele>156</ele>
        <time>2026-01-06T22:29:04.000Z</time>
      </trkpt>
      <trkpt lat="44.2211" lon="0.68813">
        <ele>156</ele>
        <time>2026-01-06T22:29:39.000Z</time>
      </trkpt>
      <trkpt lat="44.22104" lon="0.68746">
        <ele>155</ele>
        <time>2026-01-06T22:30:35.000Z</time>
      </trkpt>
      <trkpt lat="44.2209" lon="0.68709">
        <ele>155</ele>
        <time>2026-01-06T22:31:09.000Z</time>
      </trkpt>
      <trkpt lat="44.22082" lon="0.68656">
        <ele>155</ele>
        <time>2026-01-06T22:31:53.000Z</time>
      </trkpt>
      <trkpt lat="44.22075" lon="0.68642">
        <ele>154</ele>
        <time>2026-01-06T22:32:07.000Z</time>
      </trkpt>
      <trkpt lat="44.22052" lon="0.68632">
        <ele>155</ele>
        <time>2026-01-06T22:32:45.000Z</time>
      </trkpt>
      <trkpt lat="44.22049" lon="0.68631">
        <ele>155</ele>
        <time>2026-01-06T22:32:48.000Z</time>
      </trkpt>
      <trkpt lat="44.22049" lon="0.68631">
        <ele>155</ele>
        <time>2026-01-06T22:32:48.000Z</time>
      </trkpt>
      <trkpt lat="44.22042" lon="0.68629">
        <ele>155</ele>
        <time>2026-01-06T22:32:57.000Z</time>
      </trkpt>
      <trkpt lat="44.22032" lon="0.68609">
        <ele>154</ele>
        <time>2026-01-06T22:33:17.000Z</time>
      </trkpt>
      <trkpt lat="44.22031" lon="0.68586">
        <ele>155</ele>
        <time>2026-01-06T22:33:46.000Z</time>
      </trkpt>
      <trkpt lat="44.22022" lon="0.68567">
        <ele>156</ele>
        <time>2026-01-06T22:34:15.000Z</time>
      </trkpt>
      <trkpt lat="44.22005" lon="0.68557">
        <ele>157</ele>
        <time>2026-01-06T22:34:47.000Z</time>
      </trkpt>
      <trkpt lat="44.21999" lon="0.68546">
        <ele>157</ele>
        <time>2026-01-06T22:34:58.000Z</time>
      </trkpt>
      <trkpt lat="44.22003" lon="0.6853">
        <ele>156</ele>
        <time>2026-01-06T22:35:12.000Z</time>
      </trkpt>
      <trkpt lat="44.22004" lon="0.68511">
        <ele>155</ele>
        <time>2026-01-06T22:35:27.000Z</time>
      </trkpt>
      <trkpt lat="44.21999" lon="0.68491">
        <ele>155</ele>
        <time>2026-01-06T22:35:44.000Z</time>
      </trkpt>
      <trkpt lat="44.21986" lon="0.68475">
        <ele>156</ele>
        <time>2026-01-06T22:36:14.000Z</time>
      </trkpt>
      <trkpt lat="44.21979" lon="0.68458">
        <ele>157</ele>
        <time>2026-01-06T22:36:41.000Z</time>
      </trkpt>
      <trkpt lat="44.21978" lon="0.68454">
        <ele>158</ele>
        <time>2026-01-06T22:36:54.000Z</time>
      </trkpt>
      <trkpt lat="44.22088" lon="0.68413">
        <ele>151</ele>
        <time>2026-01-06T22:39:04.000Z</time>
      </trkpt>
      <trkpt lat="44.22142" lon="0.6824">
        <ele>129</ele>
        <time>2026-01-06T22:41:39.000Z</time>
      </trkpt>
      <trkpt lat="44.22384" lon="0.67951">
        <ele>101</ele>
        <time>2026-01-06T22:47:44.000Z</time>
      </trkpt>
      <trkpt lat="44.22565" lon="0.67965">
        <ele>85</ele>
        <time>2026-01-06T22:51:12.000Z</time>
      </trkpt>
      <trkpt lat="44.22607" lon="0.6794">
        <ele>81</ele>
        <time>2026-01-06T22:52:04.000Z</time>
      </trkpt>
      <trkpt lat="44.22638" lon="0.68026">
        <ele>78</ele>
        <time>2026-01-06T22:53:23.000Z</time>
      </trkpt>
      <trkpt lat="44.22743" lon="0.68091">
        <ele>91</ele>
        <time>2026-01-06T22:57:48.000Z</time>
      </trkpt>
      <trkpt lat="44.22905" lon="0.68375">
        <ele>96</ele>
        <time>2026-01-06T23:03:37.000Z</time>
      </trkpt>
      <trkpt lat="44.23049" lon="0.68355">
        <ele>87</ele>
        <time>2026-01-06T23:06:23.000Z</time>
      </trkpt>
      <trkpt lat="44.23111" lon="0.6829">
        <ele>84</ele>
        <time>2026-01-06T23:07:52.000Z</time>
      </trkpt>
      <trkpt lat="44.23098" lon="0.6833">
        <ele>88</ele>
        <time>2026-01-06T23:09:09.000Z</time>
      </trkpt>
      <trkpt lat="44.23149" lon="0.6821">
        <ele>74</ele>
        <time>2026-01-06T23:11:03.000Z</time>
      </trkpt>
      <trkpt lat="44.23198" lon="0.68183">
        <ele>68</ele>
        <time>2026-01-06T23:12:03.000Z</time>
      </trkpt>
      <trkpt lat="44.23208" lon="0.68228">
        <ele>68</ele>
        <time>2026-01-06T23:12:42.000Z</time>
        <extensions>
          <visugpx:TrkExtension xmlns:visugpx="https://www.visugpx.com/editgpx/">
            <visugpx:node>1</visugpx:node>
            </visugpx:TrkExtension>
        </extensions>
      </trkpt>
    </trkseg>
  </trk>
</gpx>